createdAt,value
2023-04-02T00:00:38.480Z,19.71
2023-04-02T00:04:00.001Z,19.65
2023-04-02T00:07:18.820Z,19.70
2023-04-02T00:10:33.702Z,19.69
2023-04-02T00:13:37.761Z,19.67
2023-04-02T00:16:41.030Z,19.71
2023-04-02T00:19:50.579Z,19.71
2023-04-02T00:22:53.317Z,19.70
2023-04-02T00:25:57.511Z,19.68
2023-04-02T00:29:00.793Z,19.59
2023-04-02T00:32:03.698Z,19.51
2023-04-02T00:35:11.507Z,19.53
2023-04-02T00:38:19.207Z,19.46
2023-04-02T00:41:27.292Z,19.42
2023-04-02T00:44:35.277Z,19.44
2023-04-02T00:47:41.249Z,19.35
2023-04-02T00:50:45.814Z,19.38
2023-04-02T00:53:52.749Z,19.49
2023-04-02T00:56:59.343Z,19.55
2023-04-02T01:00:08.349Z,19.59
2023-04-02T01:03:34.891Z,19.58
2023-04-02T01:06:39.860Z,19.60
2023-04-02T01:09:48.135Z,19.59
2023-04-02T01:12:56.529Z,19.62
2023-04-02T01:16:04.353Z,19.58
2023-04-02T01:19:13.817Z,19.60
2023-04-02T01:22:23.394Z,19.56
2023-04-02T01:25:33.977Z,19.55
2023-04-02T01:28:52.613Z,19.55
2023-04-02T01:31:57.182Z,19.59
2023-04-02T01:35:01.394Z,19.59
2023-04-02T01:38:10.585Z,19.51
2023-04-02T01:41:19.199Z,19.51
2023-04-02T01:44:26.159Z,19.45
2023-04-02T01:47:29.894Z,19.32
2023-04-02T01:50:38.219Z,19.31
2023-04-02T01:53:41.029Z,19.31
2023-04-02T01:56:44.919Z,19.25
2023-04-02T01:59:49.409Z,19.25
2023-04-02T02:02:52.876Z,19.29
2023-04-02T02:05:55.826Z,19.31
2023-04-02T02:09:01.420Z,19.43
2023-04-02T02:12:04.820Z,19.47
2023-04-02T02:15:15.904Z,19.42
2023-04-02T02:18:23.424Z,19.49
2023-04-02T02:21:32.715Z,19.46
2023-04-02T02:24:36.239Z,19.43
2023-04-02T02:27:45.293Z,19.45
2023-04-02T02:30:52.126Z,19.49
2023-04-02T02:33:57.595Z,19.47
2023-04-02T02:37:04.008Z,19.47
2023-04-02T02:40:14.173Z,19.43
2023-04-02T02:43:18.807Z,19.45
2023-04-02T02:46:24.957Z,19.43
2023-04-02T02:49:30.940Z,19.40
2023-04-02T02:52:36.110Z,19.39
2023-04-02T02:55:39.061Z,19.33
2023-04-02T02:58:42.088Z,19.32
2023-04-02T03:01:47.509Z,19.24
2023-04-02T03:04:53.129Z,19.22
2023-04-02T03:07:57.342Z,19.12
2023-04-02T03:11:03.700Z,19.18
2023-04-02T03:14:13.116Z,19.27
2023-04-02T03:17:23.772Z,19.31
2023-04-02T03:20:32.897Z,19.32
2023-04-02T03:23:40.001Z,19.33
2023-04-02T03:26:45.339Z,19.33
2023-04-02T03:29:52.610Z,19.35
2023-04-02T03:33:02.321Z,19.32
2023-04-02T03:36:13.045Z,19.34
2023-04-02T03:39:18.336Z,19.34
2023-04-02T03:42:22.909Z,19.34
2023-04-02T03:45:28.256Z,19.34
2023-04-02T03:48:39.331Z,19.34
2023-04-02T03:51:48.415Z,19.33
2023-04-02T03:54:54.277Z,19.32
2023-04-02T03:58:01.834Z,19.30
2023-04-02T04:01:07.812Z,19.24
2023-04-02T04:04:14.732Z,19.23
2023-04-02T04:07:23.706Z,19.15
2023-04-02T04:10:27.322Z,19.11
2023-04-02T04:13:32.918Z,19.06
2023-04-02T04:16:43.042Z,19.02
2023-04-02T04:19:48.506Z,18.99
2023-04-02T04:22:55.996Z,19.14
2023-04-02T04:25:59.969Z,19.26
2023-04-02T04:29:09.817Z,19.28
2023-04-02T04:32:18.266Z,19.27
2023-04-02T04:35:26.128Z,19.29
2023-04-02T04:38:32.924Z,19.31
2023-04-02T04:41:38.061Z,19.31
2023-04-02T04:44:45.475Z,19.29
2023-04-02T04:47:51.710Z,19.31
2023-04-02T04:51:01.024Z,19.26
2023-04-02T04:54:03.809Z,19.27
2023-04-02T04:57:08.020Z,19.25
2023-04-02T05:00:14.149Z,19.29
2023-04-02T05:03:22.561Z,19.27
2023-04-02T05:06:35.080Z,19.28
2023-04-02T05:09:39.517Z,19.27
2023-04-02T05:12:45.034Z,19.26
2023-04-02T05:15:50.787Z,19.27
2023-04-02T05:19:00.044Z,19.29
2023-04-02T05:22:14.128Z,19.31
2023-04-02T05:25:20.484Z,19.31
2023-04-02T05:28:26.751Z,19.33
2023-04-02T05:31:39.826Z,19.30
2023-04-02T05:34:43.261Z,19.32
2023-04-02T05:37:49.582Z,19.36
2023-04-02T05:40:55.461Z,19.36
2023-04-02T05:44:03.464Z,19.39
2023-04-02T05:47:09.115Z,19.38
2023-04-02T05:50:20.624Z,19.39
2023-04-02T05:53:26.758Z,19.41
2023-04-02T05:56:32.081Z,19.42
2023-04-02T05:59:38.773Z,19.42
2023-04-02T06:02:45.174Z,19.42
2023-04-02T06:05:48.039Z,19.44
2023-04-02T06:08:55.977Z,19.45
2023-04-02T06:12:04.273Z,19.45
2023-04-02T06:15:11.943Z,19.46
2023-04-02T06:18:16.890Z,19.43
2023-04-02T06:21:24.716Z,19.43
2023-04-02T06:24:30.441Z,19.46
2023-04-02T06:27:37.377Z,19.47
2023-04-02T06:30:42.776Z,19.48
2023-04-02T06:33:45.685Z,19.45
2023-04-02T06:36:51.488Z,19.47
2023-04-02T06:40:00.053Z,19.46
2023-04-02T06:43:09.338Z,19.47
2023-04-02T06:46:16.355Z,19.46
2023-04-02T06:49:21.369Z,19.47
2023-04-02T06:52:26.798Z,19.47
2023-04-02T06:55:34.227Z,19.45
2023-04-02T06:58:37.373Z,19.40
2023-04-02T07:01:44.071Z,19.43
2023-04-02T07:04:47.026Z,19.46
2023-04-02T07:07:49.867Z,19.49
2023-04-02T07:10:54.050Z,19.50
2023-04-02T07:13:58.269Z,19.52
2023-04-02T07:17:01.092Z,19.49
2023-04-02T07:20:03.862Z,19.50
2023-04-02T07:23:06.642Z,19.51
2023-04-02T07:26:14.609Z,19.56
2023-04-02T07:29:22.312Z,19.54
2023-04-02T07:32:27.251Z,19.55
2023-04-02T07:35:30.663Z,19.56
2023-04-02T07:38:35.305Z,19.53
2023-04-02T07:41:52.960Z,19.56
2023-04-02T07:44:57.754Z,19.57
2023-04-02T07:48:07.867Z,19.56
2023-04-02T07:51:18.894Z,19.58
2023-04-02T07:54:23.459Z,19.58
2023-04-02T07:57:27.690Z,19.59
2023-04-02T08:00:33.505Z,19.57
2023-04-02T08:03:36.451Z,19.59
2023-04-02T08:06:41.105Z,19.58
2023-04-02T08:09:46.230Z,19.58
2023-04-02T08:12:50.847Z,19.56
2023-04-02T08:15:53.601Z,19.54
2023-04-02T08:18:58.878Z,19.53
2023-04-02T08:22:01.758Z,19.52
2023-04-02T08:25:04.708Z,19.57
2023-04-02T08:28:08.913Z,19.57
2023-04-02T08:31:13.577Z,19.59
2023-04-02T08:34:16.415Z,19.59
2023-04-02T08:37:19.205Z,19.63
2023-04-02T08:40:24.224Z,19.63
2023-04-02T08:43:37.602Z,19.63
2023-04-02T08:46:46.112Z,19.66
2023-04-02T08:49:52.552Z,19.65
2023-04-02T08:52:55.566Z,19.67
2023-04-02T08:56:05.445Z,19.68
2023-04-02T08:59:12.814Z,19.68
2023-04-02T09:02:28.697Z,19.69
2023-04-02T09:05:39.130Z,19.69
2023-04-02T09:08:48.424Z,19.68
2023-04-02T09:11:53.505Z,19.71
2023-04-02T09:15:02.052Z,19.68
2023-04-02T09:18:13.587Z,19.71
2023-04-02T09:21:28.316Z,19.70
2023-04-02T09:24:32.364Z,19.69
2023-04-02T09:27:36.726Z,19.69
2023-04-02T09:30:48.381Z,19.64
2023-04-02T09:33:53.273Z,19.71
2023-04-02T09:36:56.724Z,19.71
2023-04-02T09:40:11.620Z,19.73
2023-04-02T09:43:15.680Z,19.74
2023-04-02T09:46:24.651Z,19.75
2023-04-02T09:49:28.676Z,19.76
2023-04-02T09:52:31.637Z,19.74
2023-04-02T09:55:34.934Z,19.75
2023-04-02T09:58:37.984Z,19.75
2023-04-02T10:01:42.978Z,19.78
2023-04-02T10:04:48.148Z,19.77
2023-04-02T10:07:53.205Z,19.77
2023-04-02T10:10:58.024Z,19.80
2023-04-02T10:14:05.704Z,19.80
2023-04-02T10:17:13.690Z,19.79
2023-04-02T10:20:20.061Z,19.80
2023-04-02T10:23:30.314Z,19.81
2023-04-02T10:26:37.410Z,19.80
2023-04-02T10:29:45.724Z,19.81
2023-04-02T10:32:53.051Z,19.82
2023-04-02T10:35:59.125Z,19.81
2023-04-02T10:39:06.076Z,19.79
2023-04-02T10:42:15.082Z,19.79
2023-04-02T10:45:21.697Z,19.78
2023-04-02T10:48:33.159Z,19.76
2023-04-02T10:51:40.047Z,19.78
2023-04-02T10:54:46.834Z,19.81
2023-04-02T10:57:49.748Z,19.80
2023-04-02T11:00:57.237Z,19.83
2023-04-02T11:04:05.740Z,19.82
2023-04-02T11:07:14.331Z,19.81
2023-04-02T11:10:21.231Z,19.83
2023-04-02T11:13:27.342Z,19.83
2023-04-02T11:16:32.411Z,19.85
2023-04-02T11:19:37.860Z,19.83
2023-04-02T11:22:41.613Z,19.83
2023-04-02T11:25:44.531Z,19.82
2023-04-02T11:28:47.326Z,19.84
2023-04-02T11:31:51.150Z,19.80
2023-04-02T11:35:07.818Z,19.98
2023-04-02T11:38:29.096Z,19.91
2023-04-02T11:41:50.643Z,19.88
2023-04-02T11:44:53.470Z,19.88
2023-04-02T11:48:13.811Z,19.89
2023-04-02T11:51:42.190Z,19.87
2023-04-02T11:54:45.134Z,19.85
2023-04-02T11:58:01.092Z,19.86
2023-04-02T12:01:22.525Z,19.83
2023-04-02T12:04:40.156Z,19.83
2023-04-02T12:07:57.853Z,19.86
2023-04-02T12:11:02.870Z,19.87
2023-04-02T12:14:28.088Z,19.88
2023-04-02T12:17:32.014Z,19.89
2023-04-02T12:20:35.389Z,19.91
2023-04-02T12:23:38.470Z,19.90
2023-04-02T12:26:46.644Z,19.88
2023-04-02T12:29:52.396Z,19.89
2023-04-02T12:32:57.462Z,19.96
2023-04-02T12:36:00.976Z,19.96
2023-04-02T12:39:03.897Z,19.99
2023-04-02T12:42:28.782Z,20.15
2023-04-02T12:45:33.593Z,20.03
2023-04-02T12:48:37.132Z,20.15
2023-04-02T12:51:40.645Z,20.00
2023-04-02T12:54:46.665Z,19.99
2023-04-02T12:57:50.893Z,19.99
2023-04-02T13:00:53.722Z,19.96
2023-04-02T13:04:07.275Z,19.97
2023-04-02T13:07:17.420Z,19.95
2023-04-02T13:10:26.809Z,19.94
2023-04-02T13:13:33.003Z,19.97
2023-04-02T13:16:38.996Z,19.98
2023-04-02T13:19:43.648Z,20.05
2023-04-02T13:22:48.520Z,20.03
2023-04-02T13:25:53.532Z,20.02
2023-04-02T13:29:01.901Z,20.02
2023-04-02T13:32:05.559Z,19.99
2023-04-02T13:35:08.587Z,20.03
2023-04-02T13:38:11.499Z,20.03
2023-04-02T13:41:21.510Z,20.05
2023-04-02T13:44:26.445Z,19.98
2023-04-02T13:47:29.333Z,20.01
2023-04-02T13:50:38.468Z,20.05
2023-04-02T13:53:41.534Z,19.89
2023-04-02T13:56:44.274Z,19.92
2023-04-02T13:59:48.425Z,19.93
2023-04-02T14:02:53.070Z,19.88
2023-04-02T14:06:02.410Z,19.87
2023-04-02T14:09:17.939Z,19.92
2023-04-02T14:12:27.451Z,19.95
2023-04-02T14:15:37.014Z,19.97
2023-04-02T14:18:56.933Z,19.99
2023-04-02T14:22:06.006Z,20.02
2023-04-02T14:25:13.495Z,20.01
2023-04-02T14:28:22.276Z,20.01
2023-04-02T14:31:29.082Z,20.04
2023-04-02T14:34:37.321Z,20.03
2023-04-02T14:37:47.056Z,19.98
2023-04-02T14:40:51.697Z,20.03
2023-04-02T14:43:55.755Z,20.01
2023-04-02T14:47:09.764Z,20.01
2023-04-02T14:50:16.220Z,20.01
2023-04-02T14:53:21.241Z,20.00
2023-04-02T14:56:25.133Z,19.94
2023-04-02T14:59:30.409Z,19.91
2023-04-02T15:02:43.397Z,19.93
2023-04-02T15:05:47.703Z,19.92
2023-04-02T15:09:06.195Z,19.88
2023-04-02T15:12:16.777Z,19.91
2023-04-02T15:15:37.057Z,19.90
2023-04-02T15:18:43.388Z,19.89
2023-04-02T15:25:04.095Z,19.97
2023-04-02T15:28:17.000Z,19.98
2023-04-02T15:31:22.420Z,20.01
2023-04-02T15:34:34.662Z,20.08
2023-04-02T15:37:43.403Z,20.07
2023-04-02T15:40:50.657Z,20.04
2023-04-02T15:43:57.757Z,20.02
2023-04-02T15:47:04.988Z,20.04
2023-04-02T15:50:17.189Z,20.05
2023-04-02T15:53:27.105Z,20.01
2023-04-02T15:56:38.397Z,20.04
2023-04-02T15:59:52.102Z,20.04
2023-04-02T16:03:12.998Z,20.04
2023-04-02T16:06:24.005Z,19.99
2023-04-02T16:09:30.856Z,19.97
2023-04-02T16:12:35.165Z,20.02
2023-04-02T16:15:40.205Z,19.95
2023-04-02T16:18:48.212Z,19.97
2023-04-02T16:21:57.317Z,19.93
2023-04-02T16:25:03.410Z,19.89
2023-04-02T16:28:10.001Z,19.93
2023-04-02T16:31:16.814Z,20.01
2023-04-02T16:34:26.107Z,19.99
2023-04-02T16:37:35.634Z,20.04
2023-04-02T16:40:45.123Z,20.04
2023-04-02T16:43:54.246Z,20.02
2023-04-02T16:47:01.125Z,20.02
2023-04-02T16:50:09.144Z,20.05
2023-04-02T16:53:24.278Z,20.06
2023-04-02T16:56:32.203Z,20.04
2023-04-02T16:59:36.841Z,20.07
2023-04-02T17:02:46.207Z,20.07
2023-04-02T17:05:54.121Z,20.05
2023-04-02T17:09:06.270Z,20.06
2023-04-02T17:12:16.277Z,20.04
2023-04-02T17:15:27.914Z,20.05
2023-04-02T17:18:32.137Z,20.05
2023-04-02T17:21:37.129Z,20.01
2023-04-02T17:24:42.564Z,20.04
2023-04-02T17:27:49.049Z,19.98
2023-04-02T17:30:53.412Z,19.97
2023-04-02T17:33:56.196Z,19.94
2023-04-02T17:37:08.079Z,19.90
2023-04-02T17:40:19.963Z,19.96
2023-04-02T17:43:31.971Z,19.97
2023-04-02T17:46:36.336Z,19.98
2023-04-02T17:49:48.989Z,20.01
2023-04-02T17:52:58.091Z,19.99
2023-04-02T17:56:09.483Z,19.99
2023-04-02T17:59:21.732Z,20.02
2023-04-02T18:02:32.885Z,20.02
2023-04-02T18:05:39.964Z,20.03
2023-04-02T18:08:50.836Z,20.06
2023-04-02T18:12:01.597Z,20.04
2023-04-02T18:15:15.821Z,20.03
2023-04-02T18:18:26.886Z,20.03
2023-04-02T18:21:32.355Z,20.05
2023-04-02T18:24:42.713Z,20.03
2023-04-02T18:27:57.179Z,20.03
2023-04-02T18:31:07.290Z,19.98
2023-04-02T18:34:30.746Z,19.99
2023-04-02T18:37:37.844Z,19.90
2023-04-02T18:40:46.905Z,20.06
2023-04-02T18:44:00.301Z,19.91
2023-04-02T18:47:13.559Z,19.98
2023-04-02T18:50:18.124Z,19.92
2023-04-02T18:53:24.461Z,19.97
2023-04-02T18:56:27.946Z,20.03
2023-04-02T18:59:35.803Z,19.97
2023-04-02T19:02:42.819Z,20.04
2023-04-02T19:05:49.876Z,20.04
2023-04-02T19:08:57.726Z,20.06
2023-04-02T19:12:02.611Z,20.04
2023-04-02T19:15:15.995Z,20.03
2023-04-02T19:18:23.206Z,20.02
2023-04-02T19:21:28.578Z,19.97
2023-04-02T19:24:37.814Z,19.99
2023-04-02T19:27:51.408Z,19.96
2023-04-02T19:31:02.461Z,19.87
2023-04-02T19:34:09.958Z,19.92
2023-04-02T19:37:16.849Z,19.95
2023-04-02T19:40:26.882Z,20.01
2023-04-02T19:43:30.393Z,20.00
2023-04-02T19:46:34.510Z,20.00
2023-04-02T19:49:37.374Z,20.02
2023-04-02T19:52:42.591Z,20.02
2023-04-02T19:55:46.066Z,19.99
2023-04-02T19:58:48.895Z,20.02
2023-04-02T20:01:54.463Z,20.02
2023-04-02T20:04:57.598Z,20.02
2023-04-02T20:08:00.435Z,20.00
2023-04-02T20:11:03.534Z,20.03
2023-04-02T20:14:06.729Z,20.04
2023-04-02T20:17:13.203Z,20.01
2023-04-02T20:20:22.681Z,20.03
2023-04-02T20:23:25.863Z,20.02
2023-04-02T20:26:29.751Z,20.00
2023-04-02T20:29:33.004Z,20.01
2023-04-02T20:32:38.139Z,19.98
2023-04-02T20:35:41.557Z,19.99
2023-04-02T20:38:46.593Z,19.99
2023-04-02T20:41:49.450Z,19.99
2023-04-02T20:44:52.195Z,19.99
2023-04-02T20:47:56.746Z,19.97
2023-04-02T20:51:00.185Z,19.98
2023-04-02T20:54:03.177Z,19.97
2023-04-02T20:57:06.365Z,19.97
2023-04-02T21:00:10.317Z,19.97
2023-04-02T21:03:16.952Z,19.92
2023-04-02T21:06:21.385Z,19.90
2023-04-02T21:09:25.082Z,19.90
2023-04-02T21:12:27.808Z,19.88
2023-04-02T21:15:30.630Z,19.84
2023-04-02T21:18:35.168Z,19.80
2023-04-02T21:21:44.412Z,19.89
2023-04-02T21:24:47.278Z,19.89
2023-04-02T21:27:50.038Z,19.88
2023-04-02T21:30:56.906Z,19.90
2023-04-02T21:34:04.277Z,19.90
2023-04-02T21:37:09.710Z,19.86
2023-04-02T21:40:17.332Z,19.88
2023-04-02T21:43:20.161Z,19.90
2023-04-02T21:46:25.767Z,19.90
2023-04-02T21:49:30.012Z,19.87
2023-04-02T21:52:35.555Z,19.89
2023-04-02T21:55:38.427Z,19.92
2023-04-02T21:58:41.666Z,19.89
2023-04-02T22:01:48.427Z,19.90
2023-04-02T22:04:53.109Z,19.90
2023-04-02T22:07:55.881Z,19.92
2023-04-02T22:10:58.672Z,19.89
2023-04-02T22:14:03.519Z,19.98
2023-04-02T22:17:07.484Z,19.93
2023-04-02T22:20:12.546Z,19.93
2023-04-02T22:23:15.537Z,19.92
2023-04-02T22:26:19.130Z,19.96
2023-04-02T22:29:22.030Z,19.93
2023-04-02T22:32:26.636Z,19.79
2023-04-02T22:35:31.703Z,19.83
2023-04-02T22:38:34.882Z,19.86
2023-04-02T22:41:38.919Z,19.82
2023-04-02T22:44:44.269Z,19.87
2023-04-02T22:47:47.113Z,19.91
2023-04-02T22:50:53.325Z,19.91
2023-04-02T22:53:58.787Z,19.94
2023-04-02T22:57:08.505Z,19.99
2023-04-02T23:00:13.156Z,20.00
2023-04-02T23:03:17.477Z,19.91
2023-04-02T23:06:22.033Z,19.99
2023-04-02T23:09:26.506Z,19.98
2023-04-02T23:12:29.288Z,20.02
2023-04-02T23:15:32.127Z,19.98
2023-04-02T23:18:35.007Z,19.93
2023-04-02T23:21:39.191Z,19.94
2023-04-02T23:24:44.682Z,19.93
2023-04-02T23:27:47.440Z,19.91
2023-04-02T23:30:53.559Z,19.91
2023-04-02T23:33:56.451Z,19.88
2023-04-02T23:37:01.761Z,19.88
2023-04-02T23:40:06.090Z,19.85
2023-04-02T23:43:11.097Z,19.82
2023-04-02T23:46:13.940Z,19.79
2023-04-02T23:49:17.900Z,19.70
2023-04-02T23:52:23.304Z,19.74
2023-04-02T23:55:26.273Z,19.75
2023-04-02T23:58:29.028Z,19.77
